createdAt,value
2016-08-19T00:00:02.270Z,90.88
2016-08-19T00:01:02.269Z,90.79
2016-08-19T00:02:02.265Z,90.79
2016-08-19T00:03:02.263Z,90.41
2016-08-19T00:04:02.254Z,90.5
2016-08-19T00:05:02.248Z,90.5
2016-08-19T00:06:02.242Z,90.31
2016-08-19T00:07:02.242Z,90.22
2016-08-19T00:08:02.228Z,90.22
2016-08-19T00:09:02.225Z,90.59
2016-08-19T00:10:02.222Z,90.79
2016-08-19T00:11:02.216Z,90.88
2016-08-19T00:12:02.209Z,90.79
2016-08-19T00:13:02.208Z,91.17
2016-08-19T00:14:02.215Z,91.17
2016-08-19T00:15:02.194Z,91.27
2016-08-19T00:17:02.183Z,91.17
2016-08-19T00:18:02.179Z,91.27
2016-08-19T00:19:02.174Z,90.98
2016-08-19T00:20:02.171Z,90.88
2016-08-19T00:21:02.165Z,91.55
2016-08-19T00:22:02.162Z,91.74
2016-08-19T00:23:02.155Z,91.64
2016-08-19T00:24:02.148Z,91.64
2016-08-19T00:25:02.143Z,91.46
2016-08-19T00:26:02.139Z,91.55
2016-08-19T00:27:02.132Z,91.83
2016-08-19T00:28:02.130Z,91.55
2016-08-19T00:29:02.125Z,92.22
2016-08-19T00:30:02.116Z,92.12
2016-08-19T00:31:02.116Z,92.22
2016-08-19T00:32:02.109Z,92.12
2016-08-19T00:33:02.098Z,92.6
2016-08-19T00:34:02.094Z,92.32
2016-08-19T00:35:02.091Z,92.5
2016-08-19T00:36:02.089Z,92.12
2016-08-19T00:37:02.086Z,92.5
2016-08-19T00:38:02.077Z,92.6
2016-08-19T00:39:02.423Z,92.12
2016-08-19T00:40:02.664Z,92.22
2016-08-19T00:41:02.262Z,92.32
2016-08-19T00:42:02.052Z,92.22
2016-08-19T00:43:02.051Z,92.41
2016-08-19T00:44:02.040Z,92.6
2016-08-19T00:45:02.041Z,92.98
2016-08-19T00:46:02.034Z,92.6
2016-08-19T00:47:02.027Z,92.79
2016-08-19T00:48:02.173Z,93.27
2016-08-19T00:49:02.669Z,92.98
2016-08-19T00:50:02.559Z,92.98
2016-08-19T00:51:02.005Z,92.69
2016-08-19T00:52:02.002Z,92.88
2016-08-19T00:53:01.996Z,92.98
2016-08-19T00:54:01.990Z,93.65
2016-08-19T00:55:01.987Z,93.74
2016-08-19T00:56:01.979Z,93.36
2016-08-19T00:57:01.977Z,93.55
2016-08-19T00:58:01.971Z,93.74
2016-08-19T00:59:02.373Z,93.93
2016-08-19T01:00:02.703Z,93.84
2016-08-19T01:01:01.957Z,94.03
2016-08-19T01:02:01.972Z,94.03
2016-08-19T01:03:01.943Z,94.22
2016-08-19T01:04:01.946Z,94.32
2016-08-19T01:05:01.931Z,94.22
2016-08-19T01:06:01.927Z,94.12
2016-08-19T01:08:01.912Z,93.93
2016-08-19T01:09:01.911Z,93.84
2016-08-19T01:10:02.630Z,94.22
2016-08-19T01:11:01.893Z,94.41
2016-08-19T01:12:01.893Z,94.51
2016-08-19T01:13:01.886Z,94.51
2016-08-19T01:14:01.881Z,94.32
2016-08-19T01:15:01.873Z,94.51
2016-08-19T01:16:01.867Z,94.51
2016-08-19T01:17:01.867Z,94.51
2016-08-19T01:18:01.856Z,94.51
2016-08-19T01:19:01.852Z,94.89
2016-08-19T01:20:01.853Z,94.7
2016-08-19T01:21:01.844Z,94.93
2016-08-19T01:22:01.836Z,94.51
2016-08-19T01:23:01.838Z,94.74
2016-08-19T01:24:01.826Z,94.65
2016-08-19T01:25:01.819Z,95.12
2016-08-19T01:26:01.812Z,95.03
2016-08-19T01:27:01.810Z,95.03
2016-08-19T01:28:01.805Z,95.03
2016-08-19T01:29:01.796Z,94.84
2016-08-19T01:30:01.792Z,94.93
2016-08-19T01:31:01.785Z,95.32
2016-08-19T01:32:01.780Z,94.98
2016-08-19T01:33:01.780Z,95.51
2016-08-19T01:34:01.781Z,95.32
2016-08-19T01:35:01.764Z,95.22
2016-08-19T01:36:01.760Z,95.22
2016-08-19T01:37:01.755Z,95.12
2016-08-19T01:38:01.745Z,95.32
2016-08-19T01:39:01.745Z,95.22
2016-08-19T01:40:01.736Z,95.03
2016-08-19T01:41:01.737Z,94.93
2016-08-19T01:42:01.731Z,95.51
2016-08-19T01:43:01.723Z,95.12
2016-08-19T01:44:01.718Z,95.22
2016-08-19T01:45:01.711Z,95.03
2016-08-19T01:46:01.701Z,95.89
2016-08-19T01:47:01.697Z,95.61
2016-08-19T01:48:01.690Z,95.61
2016-08-19T01:49:01.704Z,95.7
2016-08-19T01:50:01.683Z,95.51
2016-08-19T01:51:01.673Z,95.51
2016-08-19T01:52:01.671Z,95.79
2016-08-19T01:53:01.662Z,95.61
2016-08-19T01:54:01.659Z,95.51
2016-08-19T01:57:01.691Z,95.51
2016-08-19T01:58:02.190Z,95.51
2016-08-19T01:59:01.727Z,96.08
2016-08-19T02:00:01.625Z,95.98
2016-08-19T02:01:01.621Z,95.98
2016-08-19T02:02:01.613Z,95.7
2016-08-19T02:03:01.609Z,96.08
2016-08-19T02:04:01.600Z,96.08
2016-08-19T02:05:02.099Z,96.13
2016-08-19T02:06:01.599Z,95.89
2016-08-19T02:07:01.946Z,95.75
2016-08-19T02:08:01.728Z,95.84
2016-08-19T02:09:01.577Z,95.94
2016-08-19T02:10:01.569Z,96.22
2016-08-19T02:11:01.566Z,96.03
2016-08-19T02:12:01.557Z,96.22
2016-08-19T02:13:01.555Z,96.61
2016-08-19T02:14:01.555Z,96.13
2016-08-19T02:15:01.559Z,96.7
2016-08-19T02:17:01.530Z,95.75
2016-08-19T02:18:01.661Z,96.51
2016-08-19T02:19:01.520Z,96.41
2016-08-19T02:20:02.043Z,96.61
2016-08-19T02:21:02.075Z,96.61
2016-08-19T02:22:01.664Z,96.61
2016-08-19T02:23:01.499Z,96.61
2016-08-19T02:24:01.499Z,96.32
2016-08-19T02:25:03.008Z,96.7
2016-08-19T02:26:02.621Z,96.51
2016-08-19T02:27:02.330Z,96.32
2016-08-19T02:28:01.996Z,96.22
2016-08-19T02:29:01.473Z,96.41
2016-08-19T02:30:01.457Z,96.22
2016-08-19T02:31:01.453Z,96.41
2016-08-19T02:32:01.447Z,96.61
2016-08-19T02:33:01.440Z,96.51
2016-08-19T02:34:01.435Z,96.51
2016-08-19T02:35:01.431Z,96.41
2016-08-19T02:36:01.425Z,96.32
2016-08-19T02:37:01.421Z,96.51
2016-08-19T02:38:01.415Z,96.7
2016-08-19T02:39:01.408Z,96.7
2016-08-19T02:40:01.406Z,96.7
2016-08-19T02:41:01.400Z,96.32
2016-08-19T02:42:01.391Z,96.32
2016-08-19T02:43:01.388Z,96.51
2016-08-19T02:44:01.382Z,96.7
2016-08-19T02:45:01.374Z,96.7
2016-08-19T02:46:01.371Z,96.61
2016-08-19T02:47:01.369Z,96.32
2016-08-19T02:48:01.356Z,96.61
2016-08-19T02:49:01.352Z,96.51
2016-08-19T02:50:01.354Z,96.51
2016-08-19T02:51:01.344Z,96.32
2016-08-19T02:52:01.336Z,96.7
2016-08-19T02:53:01.331Z,96.41
2016-08-19T02:54:01.326Z,96.46
2016-08-19T02:55:01.323Z,96.41
2016-08-19T02:56:01.315Z,96.46
2016-08-19T02:57:01.308Z,96.41
2016-08-19T02:58:01.303Z,96.36
2016-08-19T02:59:01.297Z,96.46
2016-08-19T03:00:01.290Z,96.36
2016-08-19T03:01:01.286Z,96.41
2016-08-19T03:02:01.281Z,96.46
2016-08-19T03:03:01.274Z,96.36
2016-08-19T03:04:01.273Z,96.22
2016-08-19T03:05:01.268Z,96.13
2016-08-19T03:06:01.264Z,96.32
2016-08-19T03:07:01.262Z,96.51
2016-08-19T03:08:01.248Z,96.51
2016-08-19T03:09:01.251Z,96.8
2016-08-19T03:10:01.239Z,96.8
2016-08-19T03:11:01.237Z,96.89
2016-08-19T03:12:01.730Z,96.61
2016-08-19T03:13:02.019Z,96.8
2016-08-19T03:14:01.925Z,96.8
2016-08-19T03:15:01.210Z,96.8
2016-08-19T03:16:01.203Z,96.61
2016-08-19T03:17:01.301Z,96.8
2016-08-19T03:18:01.194Z,96.8
2016-08-19T03:19:01.187Z,96.89
2016-08-19T03:20:01.184Z,96.51
2016-08-19T03:21:01.176Z,96.8
2016-08-19T03:22:01.926Z,96.7
2016-08-19T03:23:01.164Z,96.61
2016-08-19T03:24:01.157Z,96.8
2016-08-19T03:25:01.154Z,96.8
2016-08-19T03:26:01.604Z,96.7
2016-08-19T03:27:01.199Z,96.7
2016-08-19T03:28:01.139Z,96.89
2016-08-19T03:29:01.139Z,96.7
2016-08-19T03:30:01.131Z,96.8
2016-08-19T03:31:01.123Z,96.7
2016-08-19T03:32:01.115Z,96.32
2016-08-19T03:33:01.111Z,96.8
2016-08-19T03:34:02.586Z,96.7
2016-08-19T03:35:02.436Z,96.51
2016-08-19T03:36:02.545Z,96.7
2016-08-19T03:37:02.423Z,96.61
2016-08-19T03:38:02.604Z,96.51
2016-08-19T03:39:01.078Z,96.61
2016-08-19T03:40:01.080Z,96.7
2016-08-19T03:41:01.066Z,96.7
2016-08-19T03:42:01.059Z,96.89
2016-08-19T03:43:01.054Z,96.89
2016-08-19T03:44:02.571Z,97.08
2016-08-19T03:45:01.043Z,96.8
2016-08-19T03:46:01.360Z,96.98
2016-08-19T03:47:01.270Z,96.98
2016-08-19T03:48:01.031Z,96.89
2016-08-19T03:49:01.024Z,96.8
2016-08-19T03:50:01.021Z,97.46
2016-08-19T03:51:01.020Z,96.98
2016-08-19T03:52:01.011Z,97.08
2016-08-19T03:53:01.003Z,97.17
2016-08-19T03:54:00.995Z,97.08
2016-08-19T03:55:00.986Z,97.46
2016-08-19T03:56:00.983Z,96.98
2016-08-19T03:57:00.977Z,96.98
2016-08-19T03:58:00.974Z,97.08
2016-08-19T03:59:00.969Z,97.27
2016-08-19T04:00:00.962Z,97.27
2016-08-19T04:01:00.957Z,96.89
2016-08-19T04:02:00.955Z,97.66
2016-08-19T04:03:00.949Z,97.37
2016-08-19T04:04:00.942Z,96.89
2016-08-19T04:05:00.935Z,97.17
2016-08-19T04:06:00.931Z,96.98
2016-08-19T04:07:00.926Z,96.89
2016-08-19T04:08:00.917Z,97.27
2016-08-19T04:09:00.917Z,96.7
2016-08-19T04:10:00.920Z,96.98
2016-08-19T04:11:00.903Z,97.17
2016-08-19T04:12:00.901Z,97.13
2016-08-19T04:14:00.892Z,96.56
2016-08-19T04:15:00.883Z,96.32
2016-08-19T04:22:00.847Z,96.46
2016-08-19T04:24:00.835Z,96.66
2016-08-19T04:25:00.827Z,96.66
2016-08-19T04:26:00.825Z,96.66
2016-08-19T04:27:00.816Z,96.66
2016-08-19T04:28:00.818Z,96.75
2016-08-19T04:29:00.801Z,96.66
2016-08-19T04:30:15.715Z,96.66
2016-08-19T04:31:01.396Z,96.66
2016-08-19T04:32:01.346Z,96.37
2016-08-19T04:33:01.084Z,96.75
2016-08-19T04:34:01.466Z,96.56
2016-08-19T04:35:00.771Z,96.94
2016-08-19T04:36:00.767Z,96.84
2016-08-19T04:37:00.762Z,96.94
2016-08-19T04:38:00.759Z,96.56
2016-08-19T04:39:00.751Z,96.46
2016-08-19T04:40:00.743Z,96.84
2016-08-19T04:41:00.940Z,96.17
2016-08-19T04:42:00.931Z,96.37
2016-08-19T04:43:00.732Z,96.75
2016-08-19T04:44:01.075Z,96.46
2016-08-19T04:45:01.169Z,96.61
2016-08-19T04:46:00.713Z,95.89
2016-08-19T04:48:00.705Z,95.98
2016-08-19T04:49:00.701Z,95.94
2016-08-19T04:50:00.694Z,95.94
2016-08-19T04:51:00.688Z,96.32
2016-08-19T04:52:00.681Z,95.84
2016-08-19T04:53:02.198Z,96.22
2016-08-19T04:54:01.376Z,96.61
2016-08-19T04:55:02.009Z,96.56
2016-08-19T04:56:00.664Z,96.08
2016-08-19T04:57:01.035Z,95.94
2016-08-19T04:58:00.660Z,96.42
2016-08-19T04:59:00.654Z,96.37
2016-08-19T05:00:00.652Z,95.98
2016-08-19T05:01:01.855Z,95.41
2016-08-19T05:02:01.493Z,95.36
2016-08-19T05:03:00.634Z,95.07
2016-08-19T05:04:00.925Z,94.55
2016-08-19T05:05:01.375Z,93.69
2016-08-19T05:06:00.629Z,93.54
2016-08-19T05:07:00.628Z,92.68
2016-08-19T05:08:00.631Z,91.58
2016-08-19T05:09:00.781Z,91.39
2016-08-19T05:10:00.625Z,91.24
2016-08-19T05:11:00.620Z,90.09
2016-08-19T05:12:00.622Z,89.65
2016-08-19T05:13:00.617Z,88.7
2016-08-19T05:14:00.617Z,87.88
2016-08-19T05:15:00.618Z,87.21
2016-08-19T05:16:00.609Z,86.77
2016-08-19T05:17:00.609Z,86.33
2016-08-19T05:18:00.612Z,85.57
2016-08-19T05:19:00.610Z,84.7
2016-08-19T05:20:00.616Z,83.49
2016-08-19T05:21:00.608Z,82.86
2016-08-19T05:22:00.615Z,81.9
2016-08-19T05:23:00.614Z,81.27
2016-08-19T05:24:00.616Z,80.21
2016-08-19T05:25:00.614Z,80.06
2016-08-19T05:26:00.618Z,78.81
2016-08-19T05:27:00.616Z,78.27
2016-08-19T05:28:00.621Z,77.25
2016-08-19T05:29:00.617Z,75.9
2016-08-19T05:30:00.623Z,75.93
2016-08-19T05:31:00.621Z,74.78
2016-08-19T05:32:00.629Z,74.24
2016-08-19T05:33:00.625Z,73.18
2016-08-19T05:34:00.635Z,72.73
2016-08-19T05:35:00.635Z,72.19
2016-08-19T05:36:00.640Z,70.74
2016-08-19T05:37:00.641Z,70.58
2016-08-19T05:38:00.651Z,69.62
2016-08-19T05:39:00.659Z,68.55
2016-08-19T05:40:00.659Z,68.1
2016-08-19T05:41:00.660Z,67.14
2016-08-19T05:42:00.664Z,66.4
2016-08-19T05:43:00.668Z,65.85
2016-08-19T05:44:00.675Z,64.59
2016-08-19T05:45:00.679Z,64.59
2016-08-19T05:46:00.684Z,63.85
2016-08-19T05:47:00.693Z,62.98
2016-08-19T05:48:15.615Z,62.3
2016-08-19T05:50:00.709Z,61.18
2016-08-19T05:51:00.812Z,60.43
2016-08-19T05:52:00.722Z,59.66
2016-08-19T05:53:00.980Z,59.56
2016-08-19T05:54:01.097Z,58.78
2016-08-19T05:55:00.744Z,58.59
2016-08-19T05:56:00.747Z,57.84
2016-08-19T05:57:01.259Z,57.36
2016-08-19T05:59:00.770Z,56.15
2016-08-19T06:00:00.928Z,55.77
2016-08-19T06:01:00.789Z,55.11
2016-08-19T06:03:00.804Z,53.69
2016-08-19T06:04:00.812Z,52.84
2016-08-19T06:05:00.819Z,52.67
2016-08-19T06:06:00.824Z,52.28
2016-08-19T06:07:00.836Z,51.4
2016-08-19T06:08:00.842Z,50.95
2016-08-19T06:09:00.850Z,50.46
2016-08-19T06:10:00.862Z,49.8
2016-08-19T06:11:00.874Z,49.71
2016-08-19T06:12:00.878Z,49.15
2016-08-19T06:13:01.527Z,48.27
2016-08-19T06:14:00.899Z,47.88
2016-08-19T06:15:00.907Z,48.19
2016-08-19T06:16:00.919Z,47.03
2016-08-19T06:17:00.925Z,47.03
2016-08-19T06:18:00.938Z,46.86
2016-08-19T06:19:00.942Z,46.47
2016-08-19T06:20:03.077Z,46.08
2016-08-19T06:21:02.600Z,45.81
2016-08-19T06:22:00.981Z,45.42
2016-08-19T06:23:01.947Z,45.05
2016-08-19T06:24:01.699Z,44.76
2016-08-19T06:25:01.007Z,44.27
2016-08-19T06:26:01.244Z,43.78
2016-08-19T06:27:01.083Z,43.39
2016-08-19T06:28:01.040Z,43.61
2016-08-19T06:29:01.049Z,43.32
2016-08-19T06:30:01.059Z,42.73
2016-08-19T06:31:01.071Z,42.63
2016-08-19T06:32:01.079Z,42.26
2016-08-19T06:33:01.092Z,41.77
2016-08-19T06:34:01.106Z,41.8
2016-08-19T06:35:01.116Z,41.6
2016-08-19T06:36:01.124Z,40.53
2016-08-19T06:37:01.140Z,40.74
2016-08-19T06:38:01.148Z,40.45
2016-08-19T06:39:01.163Z,40.37
2016-08-19T06:40:01.174Z,39.98
2016-08-19T06:41:01.192Z,39.39
2016-08-19T06:42:01.195Z,39.59
2016-08-19T06:43:01.208Z,39.41
2016-08-19T06:44:01.218Z,39.22
2016-08-19T06:45:01.233Z,38.92
2016-08-19T06:46:01.248Z,38.43
2016-08-19T06:47:01.262Z,38.53
2016-08-19T06:48:01.275Z,38.43
2016-08-19T06:49:01.282Z,38.24
2016-08-19T06:50:01.291Z,37.95
2016-08-19T06:51:01.307Z,38.06
2016-08-19T06:52:01.319Z,37.67
2016-08-19T06:53:01.481Z,37.57
2016-08-19T06:54:01.343Z,37.67
2016-08-19T06:55:01.356Z,37.37
2016-08-19T06:56:01.371Z,37.57
2016-08-19T06:57:01.535Z,37.47
2016-08-19T06:58:01.399Z,37.1
2016-08-19T06:59:01.417Z,37.19
2016-08-19T07:00:01.425Z,36.61
2016-08-19T07:01:01.438Z,36.72
2016-08-19T07:02:01.455Z,36.24
2016-08-19T07:03:01.469Z,35.17
2016-08-19T07:04:01.480Z,35.75
2016-08-19T07:05:01.490Z,35.35
2016-08-19T07:06:16.426Z,35.35
2016-08-19T07:07:01.522Z,34.98
2016-08-19T07:08:01.987Z,35.08
2016-08-19T07:09:01.548Z,35.1
2016-08-19T07:10:02.215Z,34.8
2016-08-19T07:11:01.579Z,34.41
2016-08-19T07:12:01.793Z,33.92
2016-08-19T07:13:01.653Z,33.43
2016-08-19T07:14:01.635Z,34.01
2016-08-19T07:15:16.556Z,33.62
2016-08-19T07:16:01.652Z,33.62
2016-08-19T07:17:02.572Z,33.14
2016-08-19T07:18:01.683Z,33.04
2016-08-19T07:19:01.692Z,33.31
2016-08-19T07:20:02.905Z,33.2
2016-08-19T07:21:01.722Z,33
2016-08-19T07:22:01.736Z,33.2
2016-08-19T07:23:01.753Z,33.1
2016-08-19T07:24:01.768Z,32.92
2016-08-19T07:25:01.795Z,32.63
2016-08-19T07:26:01.796Z,32.53
2016-08-19T07:27:01.809Z,32.53
2016-08-19T07:28:01.825Z,31.67
2016-08-19T07:29:01.843Z,31.35
2016-08-19T07:30:01.860Z,31.24
2016-08-19T07:31:03.163Z,31.34
2016-08-19T07:32:01.887Z,31.44
2016-08-19T07:33:01.899Z,30.94
2016-08-19T07:34:01.915Z,31.31
2016-08-19T07:35:01.930Z,31.8
2016-08-19T07:36:01.941Z,31.81
2016-08-19T07:37:01.966Z,31.71
2016-08-19T07:38:01.977Z,31.83
2016-08-19T07:39:01.994Z,31.93
2016-08-19T07:40:02.953Z,31.24
2016-08-19T07:41:02.021Z,31.24
2016-08-19T07:42:02.034Z,31.74
2016-08-19T07:43:02.053Z,31.54
2016-08-19T07:44:02.070Z,31.65
2016-08-19T07:45:02.293Z,31.17
2016-08-19T07:46:02.093Z,30.39
2016-08-19T07:47:02.112Z,30.78
2016-08-19T07:48:02.131Z,30.88
2016-08-19T07:49:02.149Z,31.27
2016-08-19T07:50:02.159Z,31.38
2016-08-19T07:51:02.189Z,31.29
2016-08-19T07:52:02.191Z,31.38
2016-08-19T07:53:02.208Z,31.38
2016-08-19T07:54:02.219Z,31.19
2016-08-19T07:55:02.236Z,31.19
2016-08-19T07:56:02.952Z,31.38
2016-08-19T07:57:02.374Z,31.38
2016-08-19T07:58:02.290Z,31.4
2016-08-19T07:59:02.305Z,31.4
2016-08-19T08:00:02.316Z,31.3
2016-08-19T08:01:02.339Z,31.38
2016-08-19T08:02:02.353Z,31.58
2016-08-19T08:03:02.369Z,31.38
2016-08-19T08:04:02.389Z,31.3
2016-08-19T08:05:03.105Z,31.38
2016-08-19T08:06:02.419Z,30.22
2016-08-19T08:07:02.436Z,30.3
2016-08-19T08:08:02.458Z,30.1
2016-08-19T08:09:02.471Z,30.21
2016-08-19T08:10:02.488Z,30.6
2016-08-19T08:11:02.505Z,29.62
2016-08-19T08:12:02.527Z,30.21
2016-08-19T08:13:02.539Z,29.52
2016-08-19T08:14:02.555Z,29.43
2016-08-19T08:15:02.575Z,29.41
2016-08-19T08:16:02.587Z,29.9
2016-08-19T08:17:02.614Z,29.8
2016-08-19T08:18:02.623Z,29.6
2016-08-19T08:19:02.644Z,29.21
2016-08-19T08:20:02.663Z,29.18
2016-08-19T08:21:02.670Z,29.55
2016-08-19T08:22:02.685Z,29.94
2016-08-19T08:23:02.701Z,29.44
2016-08-19T08:24:17.638Z,30.49
2016-08-19T08:25:04.229Z,30.86
2016-08-19T08:26:02.748Z,31.23
2016-08-19T08:27:02.763Z,31.41
2016-08-19T08:28:02.773Z,32.28
2016-08-19T08:29:02.790Z,32.67
2016-08-19T08:30:02.912Z,32.94
2016-08-19T08:31:02.970Z,33.04
2016-08-19T08:32:02.832Z,33.43
2016-08-19T08:33:02.849Z,33.62
2016-08-19T08:34:02.861Z,33.72
2016-08-19T08:35:02.879Z,33.43
2016-08-19T08:36:02.892Z,33.72
2016-08-19T08:37:03.606Z,33.51
2016-08-19T08:38:03.020Z,34.17
2016-08-19T08:39:02.927Z,34.17
2016-08-19T08:40:02.941Z,34.45
2016-08-19T08:41:03.651Z,34.92
2016-08-19T08:42:02.968Z,35.21
2016-08-19T08:43:02.979Z,35.68
2016-08-19T08:44:02.990Z,36.16
2016-08-19T08:45:02.998Z,36.34
2016-08-19T08:46:03.008Z,37.3
2016-08-19T08:47:03.022Z,37.47
2016-08-19T08:48:03.033Z,37.37
2016-08-19T08:49:03.055Z,38.04
2016-08-19T08:50:03.673Z,38.32
2016-08-19T08:51:03.946Z,38.7
2016-08-19T08:52:03.707Z,39.08
2016-08-19T08:53:03.078Z,39.45
2016-08-19T08:54:03.087Z,40.23
2016-08-19T08:55:03.098Z,40.52
2016-08-19T08:56:03.102Z,40.81
2016-08-19T08:57:03.122Z,41.37
2016-08-19T08:58:03.118Z,41.37
2016-08-19T08:59:03.711Z,41.64
2016-08-19T09:00:03.132Z,42.03
2016-08-19T09:01:03.146Z,42.9
2016-08-19T09:02:03.147Z,43.55
2016-08-19T09:03:03.148Z,43.75
2016-08-19T09:04:03.158Z,44.5
2016-08-19T09:05:03.163Z,44.7
2016-08-19T09:06:03.170Z,44.98
2016-08-19T09:07:03.179Z,45.25
2016-08-19T09:08:03.184Z,45.64
2016-08-19T09:09:03.187Z,45.64
2016-08-19T09:10:03.198Z,46.03
2016-08-19T09:11:03.198Z,46.42
2016-08-19T09:12:03.205Z,46.3
2016-08-19T09:13:03.209Z,46.49
2016-08-19T09:14:03.216Z,46.78
2016-08-19T09:15:03.219Z,46.58
2016-08-19T09:16:03.231Z,46.49
2016-08-19T09:17:03.228Z,46.78
2016-08-19T09:18:03.230Z,46.88
2016-08-19T09:19:03.237Z,47.26
2016-08-19T09:20:03.243Z,47.84
2016-08-19T09:21:03.252Z,47.72
2016-08-19T09:22:03.251Z,47.91
2016-08-19T09:23:03.254Z,47.91
2016-08-19T09:24:03.259Z,47.94
2016-08-19T09:25:03.263Z,47.74
2016-08-19T09:30:03.288Z,47.65
2016-08-19T09:31:03.290Z,47.65
2016-08-19T09:32:03.296Z,47.74
2016-08-19T09:33:04.815Z,47.65
2016-08-19T09:34:03.302Z,47.65
2016-08-19T09:35:03.305Z,47.91
2016-08-19T09:36:03.306Z,47.84
2016-08-19T09:37:03.308Z,47.91
2016-08-19T09:38:03.315Z,47.84
2016-08-19T09:39:03.318Z,48.03
2016-08-19T09:40:03.317Z,48.13
2016-08-19T09:41:03.324Z,48.3
2016-08-19T09:42:03.326Z,48.59
2016-08-19T09:43:03.478Z,48.69
2016-08-19T09:44:03.334Z,48.59
2016-08-19T09:45:18.707Z,48.59
2016-08-19T09:46:03.341Z,48.69
2016-08-19T09:47:03.346Z,48.79
2016-08-19T09:48:03.695Z,48.79
2016-08-19T09:49:03.556Z,48.88
2016-08-19T09:50:03.356Z,48.59
2016-08-19T09:51:03.359Z,48.79
2016-08-19T09:52:03.508Z,48.88
2016-08-19T09:53:03.515Z,48.97
2016-08-19T09:54:03.370Z,48.69
2016-08-19T09:55:03.720Z,48.88
2016-08-19T09:57:04.083Z,48.59
2016-08-19T09:58:04.381Z,48.49
2016-08-19T09:59:03.385Z,48.49
2016-08-19T10:00:03.389Z,48.69
2016-08-19T10:01:06.327Z,48.79
2016-08-19T10:02:03.391Z,49.17
2016-08-19T10:03:03.397Z,49.46
2016-08-19T10:04:03.402Z,48.88
2016-08-19T10:05:03.649Z,48.88
2016-08-19T10:06:04.450Z,49.55
2016-08-19T10:07:04.833Z,49.46
2016-08-19T10:08:03.694Z,49.27
2016-08-19T10:09:16.838Z,49.37
2016-08-19T10:10:03.833Z,49.65
2016-08-19T10:11:03.826Z,49.65
2016-08-19T10:12:03.683Z,49.37
2016-08-19T10:13:03.430Z,49.37
2016-08-19T10:14:03.428Z,49.65
2016-08-19T10:15:03.781Z,48.69
2016-08-19T10:16:04.533Z,48.59
2016-08-19T10:17:03.604Z,48.49
2016-08-19T10:18:03.443Z,48.13
2016-08-19T10:19:04.134Z,48.3
2016-08-19T10:20:03.603Z,47.91
2016-08-19T10:21:03.450Z,47.63
2016-08-19T10:22:03.459Z,47.81
2016-08-19T10:23:03.459Z,47.74
2016-08-19T10:25:04.984Z,47.65
2016-08-19T10:26:03.465Z,47.94
2016-08-19T10:27:03.471Z,47.84
2016-08-19T10:29:03.477Z,47.94
2016-08-19T10:30:03.483Z,48.32
2016-08-19T10:31:03.485Z,48.03
2016-08-19T10:32:03.490Z,48.16
2016-08-19T10:33:03.491Z,47.96
2016-08-19T10:34:03.495Z,48.06
2016-08-19T10:35:03.496Z,47.96
2016-08-19T10:36:03.497Z,47.58
2016-08-19T10:37:03.499Z,47.58
2016-08-19T10:38:03.503Z,47.77
2016-08-19T10:39:03.510Z,47.96
2016-08-19T10:40:03.511Z,47.38
2016-08-19T10:41:03.520Z,47.19
2016-08-19T10:42:03.520Z,47.48
2016-08-19T10:43:03.517Z,46.7
2016-08-19T10:44:03.522Z,46.7
2016-08-19T10:45:03.525Z,47.09
2016-08-19T10:46:03.528Z,46.83
2016-08-19T10:47:03.536Z,46.83
2016-08-19T10:48:03.534Z,46.44
2016-08-19T10:49:03.537Z,46.15
2016-08-19T10:50:03.546Z,45.95
2016-08-19T10:51:03.548Z,45.57
2016-08-19T10:52:03.554Z,45.47
2016-08-19T10:53:05.467Z,45.37
2016-08-19T10:54:04.772Z,45.18
2016-08-19T10:55:03.559Z,44.98
2016-08-19T10:57:03.571Z,44.62
2016-08-19T10:58:03.576Z,44.13
2016-08-19T10:59:03.575Z,44.13
2016-08-19T11:00:03.581Z,44.23
2016-08-19T11:01:04.552Z,43.75
2016-08-19T11:02:03.582Z,43.75
2016-08-19T11:03:03.587Z,43.46
2016-08-19T11:04:03.690Z,42.86
2016-08-19T11:05:03.847Z,43.05
2016-08-19T11:06:03.598Z,43.07
2016-08-19T11:07:03.703Z,42.96
2016-08-19T11:08:03.610Z,43.07
2016-08-19T11:09:03.614Z,42.78
2016-08-19T11:10:04.816Z,42.97
2016-08-19T11:11:03.826Z,42.78
2016-08-19T11:12:04.316Z,43.07
2016-08-19T11:14:03.627Z,42.3
2016-08-19T11:15:04.082Z,42.1
2016-08-19T11:16:03.639Z,42
2016-08-19T11:17:03.641Z,42.59
2016-08-19T11:18:03.645Z,42.4
2016-08-19T11:19:03.656Z,42.3
2016-08-19T11:20:03.653Z,42.1
2016-08-19T11:21:03.660Z,42.2
2016-08-19T11:22:03.659Z,42.32
2016-08-19T11:23:04.585Z,42.13
2016-08-19T11:24:03.785Z,42.22
2016-08-19T11:25:03.671Z,42.03
2016-08-19T11:26:03.674Z,42.03
2016-08-19T11:27:03.929Z,41.74
2016-08-19T11:28:04.381Z,42.03
2016-08-19T11:29:03.870Z,42.13
2016-08-19T11:30:03.697Z,41.93
2016-08-19T11:31:03.697Z,41.64
2016-08-19T11:32:03.718Z,41.55
2016-08-19T11:33:05.385Z,41.64
2016-08-19T11:34:03.706Z,41.83
2016-08-19T11:35:03.717Z,42.03
2016-08-19T11:36:04.226Z,42.13
2016-08-19T11:37:03.719Z,42.13
2016-08-19T11:38:03.724Z,42.32
2016-08-19T11:39:03.728Z,41.83
2016-08-19T11:40:03.804Z,41.64
2016-08-19T11:41:03.740Z,41.74
2016-08-19T11:42:03.742Z,41.35
2016-08-19T11:43:03.748Z,41.25
2016-08-19T11:44:03.748Z,41.55
2016-08-19T11:45:03.756Z,41.06
2016-08-19T11:46:03.757Z,41.06
2016-08-19T11:47:03.762Z,40.21
2016-08-19T11:48:03.765Z,40.59
2016-08-19T11:49:03.771Z,40.5
2016-08-19T11:50:03.777Z,40.5
2016-08-19T11:51:03.775Z,40.59
2016-08-19T11:52:03.782Z,40.5
2016-08-19T11:53:03.791Z,40.4
2016-08-19T11:54:03.789Z,40.59
2016-08-19T11:55:03.799Z,40.5
2016-08-19T11:56:03.798Z,40.59
2016-08-19T11:57:03.907Z,40.69
2016-08-19T11:58:03.813Z,40.52
2016-08-19T11:59:03.813Z,40.11
2016-08-19T12:00:03.822Z,40.33
2016-08-19T12:01:03.821Z,40.23
2016-08-19T12:02:03.824Z,40.23
2016-08-19T12:03:03.830Z,40.23
2016-08-19T12:04:03.833Z,40.33
2016-08-19T12:05:03.840Z,40.42
2016-08-19T12:06:03.844Z,40.33
2016-08-19T12:07:03.849Z,40.13
2016-08-19T12:08:03.853Z,40.03
2016-08-19T12:09:03.857Z,39.55
2016-08-19T12:10:03.865Z,40.03
2016-08-19T12:11:03.866Z,39.94
2016-08-19T12:12:03.870Z,39.36
2016-08-19T12:13:05.800Z,39.55
2016-08-19T12:14:03.882Z,40.03
2016-08-19T12:15:03.890Z,39.55
2016-08-19T12:16:03.889Z,39.45
2016-08-19T12:17:03.896Z,39.84
2016-08-19T12:18:03.896Z,38.85
2016-08-19T12:20:04.256Z,39.16
2016-08-19T12:21:04.762Z,39.26
2016-08-19T12:22:03.919Z,39.24
2016-08-19T12:23:04.223Z,39.36
2016-08-19T12:24:04.227Z,38.78
2016-08-19T12:25:03.931Z,38.58
2016-08-19T12:26:03.937Z,38.29
2016-08-19T12:27:03.938Z,38.39
2016-08-19T12:29:03.945Z,38.09
2016-08-19T12:30:05.251Z,37.9
2016-08-19T12:31:04.158Z,37.71
2016-08-19T12:32:04.653Z,38
2016-08-19T12:33:03.966Z,38
2016-08-19T12:34:03.976Z,37.9
2016-08-19T12:35:03.972Z,37.9
2016-08-19T12:36:03.977Z,38
2016-08-19T12:37:03.984Z,37.9
2016-08-19T12:38:03.991Z,37.81
2016-08-19T12:39:03.990Z,37.81
2016-08-19T12:40:03.993Z,37.81
2016-08-19T12:41:05.525Z,37.9
2016-08-19T12:42:05.376Z,37.9
2016-08-19T12:43:05.286Z,37.81
2016-08-19T12:44:05.061Z,37.9
2016-08-19T12:45:04.426Z,38
2016-08-19T12:46:04.655Z,37.41
2016-08-19T12:47:04.551Z,37.9
2016-08-19T12:48:04.032Z,37.51
2016-08-19T12:49:04.040Z,37.32
2016-08-19T12:50:04.770Z,37.23
2016-08-19T12:51:04.741Z,37.32
2016-08-19T12:52:04.898Z,37.03
2016-08-19T12:53:04.906Z,37.41
2016-08-19T12:54:04.538Z,37.51
2016-08-19T12:55:04.072Z,37.51
2016-08-19T12:56:04.073Z,37.81
2016-08-19T12:57:04.078Z,37.13
2016-08-19T12:58:04.092Z,37.32
2016-08-19T12:59:04.093Z,37.23
2016-08-19T13:00:04.090Z,37.32
2016-08-19T13:01:04.091Z,37.23
2016-08-19T13:02:04.795Z,36.74
2016-08-19T13:03:04.099Z,36.44
2016-08-19T13:04:04.103Z,36.35
2016-08-19T13:05:04.113Z,35.94
2016-08-19T13:06:04.116Z,36.74
2016-08-19T13:07:04.119Z,36.24
2016-08-19T13:08:04.121Z,36.16
2016-08-19T13:09:04.144Z,36.64
2016-08-19T13:10:04.131Z,36.54
2016-08-19T13:11:04.141Z,35.96
2016-08-19T13:12:04.147Z,35.86
2016-08-19T13:13:04.149Z,36.16
2016-08-19T13:14:04.154Z,35.96
2016-08-19T13:16:05.680Z,35.57
2016-08-19T13:19:04.174Z,34.31
2016-08-19T13:20:04.878Z,34.61
2016-08-19T13:21:04.180Z,34.7
2016-08-19T13:22:04.188Z,34.7
2016-08-19T13:23:04.190Z,34.7
2016-08-19T13:24:04.197Z,34.61
2016-08-19T13:25:04.205Z,34.61
2016-08-19T13:26:04.206Z,34.61
2016-08-19T13:27:04.211Z,34.7